Portada
METAR-TAF:

METAR-TAF

Aeroports :

Parnaíba, Piauí, Brasil

latitud: 02-55S, longitud: 041-45W, altitud: 5 m

METAR: manca

Hora: 23:45 (02:45 UTC)

Pronòstic

L'informe es va fer fa 5 hores i 45 minuts, a les 21:00 UTC
Pronòstic vàlid del 13 a les 00 UTC al 13 a les 12 UTC
Vent 5 kt del Est
Visibilitat 10 km o més
sense núvols per sota de 1500 mi sense presència de cumulonimbus.

TAF: SBPB 122100Z 1300/1312 09005KT CAVOK TN24/1306Z TX28/1312Z RMK PEH

Observacions i pronòstics meteorològics de més de 4000 aeroports (METAR i TAF).

Les estacions disponibles són els punts grocs i vermells al mapa.

Posi el ratolí al punt desitjat per veure el nom de l'estació.

Feu clic per veure les observacions i els pronòstics meteorològics.

Per canviar el mapa: feu clic els botons verds amb una creu de color negre per apropar; al botó verd amb un guió per allunyar la imatge; o en les fletxes verdes per a mapes adjacents.


METAR-TAF: